Beverly Hills, CA (90210)

9:32 PM PDT on April 27, 2017 (GMT -0700)
| | Change Station
Active Advisory: Beach Hazard Statement Active Notice: Public Information Statement

Elev -9999 ft 0.00 °N, 0.00 °E | Updated 6 minutes ago

Clear
Clear
°F
Feels Like °F
N
Wind Variable Wind from North
Gusts mph

Today
High -- | Low -- °F
--% Chance of Precip.
Yesterday
High -- | Low -- °F
Precip. -- in
Pressure 29.75 in
Visibility 10.0 miles
Clouds Clear
Dew Point Not available.
Humidity Not available.
Rainfall --
Snow Depth Not available.
6:08 AM 7:34 PM
Waxing Crescent, 4% visible
METAR KSMO 280351Z AUTO 36012G24KT 330V030 10SM CLR 23/05 A2975 RMK AO2 PK WND 01028/0252 SLP072 T02330050 $
Pressure 29.75 in
Visibility 10.0 miles
Clouds Clear
Dew Point Not available.
Humidity Not available.
Rainfall --
Snow Depth Not available.
6:08 AM 7:34 PM
Waxing Crescent, 4% visible
METAR KSMO 280351Z AUTO 36012G24KT 330V030 10SM CLR 23/05 A2975 RMK AO2 PK WND 01028/0252 SLP072 T02330050 $

Get Your Daily Forecast Email!

Thanks for signing up!

Be on the lookout for a verification email in your inbox.

You'll start receiving severe weather alerts in your inbox..

×

10-Day Weather Forecast

Almanac

Astronomy

Apr. 27, 2017 Rise Set
Actual Time
Civil Twilight
Nautical Twilight
Astronomical Twilight
Moon
Length of Visible Light
Length of Day
Tomorrow will be .
, % of the Moon is Illuminated

Today's Extremes

State Highs State Lows

Community

WunderPhotos

WunderBlog® & News

Nearby

Air Quality

  Air Quality AQ Index Pollutant
Not available.

Snow Depth

Station Depth Elevation

Earthquake Activity

City Distance Mag. Time & Date
Minimum magnitude displayed is 2.5.

Coastal Water Temperatures

Place Temperature

Stations

Nearby Weather Stations

Station Location Temp. Windchill Dew Point Humidity Wind Precip. Elev Updated Type
                   

Watches & Warnings

Beach Hazard Statement
Issued: 3:57 AM PDT Apr. 27, 2017 – National Weather Service

... Beach hazards statement remains in effect through Friday
evening...

* hazards... dangerous rip currents and breaking waves are
expected due to elevated surf of 3 to 6 feet. Local sets to 7
feet are possible. Highest surf is expected each afternoon and
evening on west-facing beaches.

* Impacts... there is an increased risk of ocean drowning. Rip
currents can pull swimmers and surfers out to sea. Waves can
wash people off beaches and rocks... and capsize small boats
nearshore.

Precautionary/preparedness actions...

A beach hazards statement is issued when threats such as rip
currents... longshore currents... sneaker waves and other hazards
create life-threatening conditions in the surf zone. Swim near a
lifeguard. If caught in a rip current, relax and float. Don't
swim against the current. If able, swim in a direction following
the shoreline. If unable to escape, face the shore and call or
wave for help.